« Back
NWS Peachtree City, Ga » Text Product » AHN Terminal Aerodrome Forecast


Printer-friendly Version
Current Version              Previous Versions:   1  2  3  4  5  6  7  8  9  

Terminal Aerodrome Forecast

371
FTAK31 PAJN 130609 AAA
TAFAHN
TAF AMD
PAHN 130609Z 1306/1406 07008G17KT P6SM -SHRA BKN010 BKN030 OVC070
     FM131500 VRB06KT P6SM VCSH SCT025 OVC050
      AMD LTD TO CLD VIS AND WIND=

USA.gov is the U.S. government's official web portal to all federal, state and local government web resources and services.